createdAt,value
2022-11-25T00:00:11.073Z,12.00
2022-11-25T00:02:44.110Z,10.60
2022-11-25T00:05:10.986Z,9.70
2022-11-25T00:07:38.858Z,8.77
2022-11-25T00:10:06.855Z,8.23
2022-11-25T00:12:33.621Z,9.63
2022-11-25T00:15:00.293Z,9.33
2022-11-25T00:17:26.875Z,10.70
2022-11-25T00:19:53.502Z,9.47
2022-11-25T00:22:20.112Z,12.50
2022-11-25T00:24:46.691Z,12.17
2022-11-25T00:27:13.358Z,9.50
2022-11-25T00:29:40.015Z,10.67
2022-11-25T00:32:06.801Z,11.10
2022-11-25T00:34:33.655Z,12.50
2022-11-25T00:37:00.339Z,10.83
2022-11-25T00:39:27.152Z,11.40
2022-11-25T00:42:12.372Z,9.63
2022-11-25T00:44:40.725Z,9.00
2022-11-25T00:47:12.898Z,10.63
2022-11-25T00:49:41.389Z,9.67
2022-11-25T00:52:09.985Z,7.00
2022-11-25T00:54:36.809Z,11.50
2022-11-25T00:57:03.706Z,10.60
2022-11-25T00:59:30.905Z,10.63
2022-11-25T01:01:57.585Z,15.30
2022-11-25T01:04:24.283Z,11.20
2022-11-25T01:06:50.978Z,10.17
2022-11-25T01:09:17.560Z,8.77
2022-11-25T01:11:44.239Z,9.90
2022-11-25T01:14:11.438Z,10.83
2022-11-25T01:16:38.360Z,9.73
2022-11-25T01:19:05.082Z,12.63
2022-11-25T01:21:33.498Z,11.70
2022-11-25T01:24:04.716Z,11.73
2022-11-25T01:26:32.602Z,11.83
2022-11-25T01:29:01.827Z,9.00
2022-11-25T01:31:31.147Z,7.53
2022-11-25T01:34:05.022Z,13.60
2022-11-25T01:36:32.065Z,9.00
2022-11-25T01:39:00.353Z,8.70
2022-11-25T01:41:30.280Z,8.07
2022-11-25T01:44:14.822Z,7.17
2022-11-25T01:47:05.500Z,8.00
2022-11-25T01:49:40.991Z,5.43
2022-11-25T01:52:19.872Z,9.80
2022-11-25T01:55:04.606Z,9.17
2022-11-25T01:57:52.912Z,9.53
2022-11-25T02:00:20.235Z,7.73
2022-11-25T02:02:49.325Z,5.30
2022-11-25T02:05:22.908Z,11.20
2022-11-25T02:07:51.126Z,6.77
2022-11-25T02:10:28.935Z,7.63
2022-11-25T02:12:55.887Z,7.53
2022-11-25T02:15:22.930Z,7.13
2022-11-25T02:17:49.816Z,8.43
2022-11-25T02:20:19.719Z,5.70
2022-11-25T02:23:17.794Z,7.03
2022-11-25T02:25:45.530Z,7.90
2022-11-25T02:28:19.144Z,5.20
2022-11-25T02:30:46.517Z,7.70
2022-11-25T02:33:14.300Z,6.50
2022-11-25T02:36:10.607Z,8.43
2022-11-25T02:38:45.142Z,8.47
2022-11-25T02:41:22.490Z,8.60
2022-11-25T02:43:49.104Z,5.90
2022-11-25T02:46:22.208Z,6.53
2022-11-25T02:49:08.427Z,7.63
2022-11-25T02:51:36.448Z,7.17
2022-11-25T02:54:03.301Z,7.03
2022-11-25T02:56:32.593Z,6.10
2022-11-25T02:59:00.052Z,5.60
2022-11-25T03:01:27.235Z,12.40
2022-11-25T03:03:53.937Z,7.03
2022-11-25T03:06:20.819Z,7.27
2022-11-25T03:08:47.475Z,8.73
2022-11-25T03:11:14.404Z,6.87
2022-11-25T03:13:41.506Z,5.87
2022-11-25T03:16:08.419Z,7.47
2022-11-25T03:18:35.427Z,4.57
2022-11-25T03:21:02.212Z,8.20
2022-11-25T03:23:29.001Z,5.13
2022-11-25T03:25:55.802Z,5.73
2022-11-25T03:28:23.167Z,8.13
2022-11-25T03:30:49.831Z,6.07
2022-11-25T03:33:16.444Z,5.20
2022-11-25T03:35:43.019Z,4.47
2022-11-25T03:38:09.584Z,4.60
2022-11-25T03:40:36.287Z,8.30
2022-11-25T03:43:03.254Z,5.63
2022-11-25T03:45:29.934Z,6.70
2022-11-25T03:47:56.557Z,5.90
2022-11-25T03:50:23.170Z,5.77
2022-11-25T03:52:49.833Z,6.87
2022-11-25T03:55:16.727Z,5.60
2022-11-25T03:57:43.374Z,4.13
2022-11-25T04:00:11.264Z,7.00
2022-11-25T04:02:37.951Z,6.90
2022-11-25T04:05:05.443Z,7.03
2022-11-25T04:07:32.163Z,5.77
2022-11-25T04:09:58.834Z,7.83
2022-11-25T04:12:44.292Z,7.90
2022-11-25T04:15:11.102Z,8.17
2022-11-25T04:17:37.777Z,4.83
2022-11-25T04:20:05.025Z,10.83
2022-11-25T04:22:31.628Z,5.27
2022-11-25T04:24:58.274Z,5.47
2022-11-25T04:27:24.856Z,4.13
2022-11-25T04:29:51.447Z,6.83
2022-11-25T04:32:18.219Z,4.90
2022-11-25T04:34:44.819Z,4.90
2022-11-25T04:37:11.445Z,5.07
2022-11-25T04:39:38.154Z,6.17
2022-11-25T04:42:23.423Z,6.13
2022-11-25T04:45:14.003Z,4.57
2022-11-25T04:47:37.100Z,6.57
2022-11-25T04:50:06.032Z,7.73
2022-11-25T04:52:33.619Z,9.77
2022-11-25T04:55:00.206Z,7.47
2022-11-25T04:57:26.838Z,5.27
2022-11-25T04:59:53.486Z,5.87
2022-11-25T05:02:23.897Z,7.00
2022-11-25T05:04:52.246Z,6.63
2022-11-25T05:07:21.122Z,5.20
2022-11-25T05:09:48.277Z,4.67
2022-11-25T05:12:26.000Z,5.33
2022-11-25T05:14:52.749Z,7.67
2022-11-25T05:17:22.198Z,7.17
2022-11-25T05:19:50.092Z,4.80
2022-11-25T05:22:20.429Z,6.37
2022-11-25T05:24:47.463Z,7.70
2022-11-25T05:27:15.403Z,6.47
2022-11-25T05:29:42.628Z,7.37
2022-11-25T05:32:09.702Z,8.57
2022-11-25T05:34:37.685Z,4.83
2022-11-25T05:37:04.957Z,8.20
2022-11-25T05:39:31.567Z,5.77
2022-11-25T05:41:58.308Z,6.73
2022-11-25T05:44:25.053Z,7.13
2022-11-25T05:46:52.025Z,6.30
2022-11-25T05:49:19.218Z,6.77
2022-11-25T05:51:45.912Z,8.20
2022-11-25T05:54:12.954Z,7.10
2022-11-25T05:56:40.270Z,5.50
2022-11-25T05:59:07.410Z,7.83
2022-11-25T06:01:34.538Z,8.53
2022-11-25T06:04:02.015Z,9.43
2022-11-25T06:06:28.903Z,9.33
2022-11-25T06:08:55.964Z,7.87
2022-11-25T06:11:23.030Z,7.83
2022-11-25T06:13:49.668Z,11.20
2022-11-25T06:16:18.916Z,7.87
2022-11-25T06:18:45.860Z,7.23
2022-11-25T06:21:13.894Z,9.20
2022-11-25T06:23:40.612Z,7.53
2022-11-25T06:26:12.182Z,14.33
2022-11-25T06:28:38.982Z,12.80
2022-11-25T06:31:11.419Z,8.77
2022-11-25T06:33:38.525Z,10.97
2022-11-25T06:36:07.647Z,12.17
2022-11-25T06:38:34.732Z,9.53
2022-11-25T06:41:03.195Z,9.33
2022-11-25T06:43:30.356Z,8.20
2022-11-25T06:46:03.225Z,10.57
2022-11-25T06:48:30.027Z,8.43
2022-11-25T06:51:02.049Z,6.60
2022-11-25T06:53:28.765Z,9.00
2022-11-25T06:56:07.968Z,9.83
2022-11-25T06:58:36.683Z,8.03
2022-11-25T07:01:06.289Z,10.80
2022-11-25T07:03:33.189Z,9.57
2022-11-25T07:06:00.662Z,8.43
2022-11-25T07:08:33.581Z,10.50
2022-11-25T07:11:06.278Z,8.17
2022-11-25T07:13:33.749Z,7.00
2022-11-25T07:16:04.915Z,10.13
2022-11-25T07:18:35.812Z,8.67
2022-11-25T07:21:11.373Z,8.50
2022-11-25T07:23:38.534Z,10.23
2022-11-25T07:26:11.821Z,7.37
2022-11-25T07:28:39.270Z,9.13
2022-11-25T07:31:31.472Z,9.63
2022-11-25T07:34:02.398Z,8.43
2022-11-25T07:36:30.300Z,7.73
2022-11-25T07:38:59.396Z,9.63
2022-11-25T07:41:27.893Z,11.30
2022-11-25T07:43:56.982Z,8.37
2022-11-25T07:46:27.010Z,10.70
2022-11-25T07:48:57.420Z,12.00
2022-11-25T07:51:28.477Z,6.33
2022-11-25T07:53:56.642Z,8.77
2022-11-25T07:56:24.384Z,8.23
2022-11-25T07:58:51.371Z,8.63
2022-11-25T08:01:18.783Z,7.97
2022-11-25T08:03:47.718Z,9.27
2022-11-25T08:06:17.241Z,8.03
2022-11-25T08:08:44.996Z,6.93
2022-11-25T08:11:17.780Z,10.70
2022-11-25T08:13:45.236Z,11.60
2022-11-25T08:16:14.207Z,8.70
2022-11-25T08:18:42.425Z,7.47
2022-11-25T08:21:13.598Z,7.37
2022-11-25T08:23:44.548Z,8.13
2022-11-25T08:26:20.051Z,9.83
2022-11-25T08:28:47.258Z,6.80
2022-11-25T08:31:17.960Z,6.67
2022-11-25T08:33:44.880Z,7.97
2022-11-25T08:36:12.531Z,9.97
2022-11-25T08:38:40.323Z,9.70
2022-11-25T08:41:15.847Z,7.23
2022-11-25T08:43:42.694Z,8.87
2022-11-25T08:46:12.025Z,7.90
2022-11-25T08:48:39.077Z,11.70
2022-11-25T08:51:11.922Z,6.17
2022-11-25T08:53:40.243Z,7.63
2022-11-25T08:56:07.616Z,6.73
2022-11-25T08:58:35.435Z,6.47
2022-11-25T09:01:03.159Z,5.97
2022-11-25T09:03:33.725Z,10.47
2022-11-25T09:06:01.216Z,6.17
2022-11-25T09:08:28.132Z,5.93
2022-11-25T09:10:54.845Z,8.77
2022-11-25T09:13:21.503Z,6.60
2022-11-25T09:15:48.137Z,6.17
2022-11-25T09:18:15.553Z,9.63
2022-11-25T09:20:42.250Z,7.17
2022-11-25T09:23:09.145Z,8.97
2022-11-25T09:25:36.509Z,10.70
2022-11-25T09:28:04.120Z,7.47
2022-11-25T09:30:31.415Z,7.07
2022-11-25T09:32:58.204Z,4.80
2022-11-25T09:35:25.422Z,8.07
2022-11-25T09:37:52.070Z,5.53
2022-11-25T09:40:46.241Z,5.37
2022-11-25T09:43:50.387Z,5.50
2022-11-25T09:46:53.446Z,6.73
2022-11-25T09:49:51.216Z,4.77
2022-11-25T09:52:44.966Z,6.40
2022-11-25T09:55:14.542Z,5.33
2022-11-25T09:58:16.335Z,7.13
2022-11-25T10:00:46.392Z,6.20
2022-11-25T10:03:26.843Z,7.47
2022-11-25T10:05:53.489Z,6.43
2022-11-25T10:08:25.263Z,5.23
2022-11-25T10:11:35.149Z,5.30
2022-11-25T10:14:15.700Z,6.50
2022-11-25T10:16:51.385Z,5.30
2022-11-25T10:19:33.645Z,5.50
2022-11-25T10:22:28.536Z,6.40
2022-11-25T10:25:00.040Z,7.23
2022-11-25T10:27:50.294Z,5.37
2022-11-25T10:30:23.897Z,6.73
2022-11-25T10:33:12.569Z,6.17
2022-11-25T10:35:44.775Z,8.97
2022-11-25T10:38:19.265Z,6.70
2022-11-25T10:40:50.085Z,4.93
2022-11-25T10:43:16.884Z,6.33
2022-11-25T10:46:18.634Z,6.93
2022-11-25T10:49:05.935Z,4.50
2022-11-25T10:51:49.738Z,4.90
2022-11-25T10:54:39.103Z,8.10
2022-11-25T10:57:18.654Z,6.00
2022-11-25T10:59:58.907Z,4.40
2022-11-25T11:02:37.200Z,5.30
2022-11-25T11:05:19.090Z,5.00
2022-11-25T11:07:47.256Z,4.20
2022-11-25T11:10:25.087Z,4.13
2022-11-25T11:13:18.340Z,4.87
2022-11-25T11:15:47.261Z,6.27
2022-11-25T11:18:39.702Z,4.90
2022-11-25T11:21:08.547Z,5.10
2022-11-25T11:23:50.513Z,4.77
2022-11-25T11:26:28.651Z,7.90
2022-11-25T11:29:17.028Z,5.87
2022-11-25T11:31:59.648Z,9.50
2022-11-25T11:35:06.196Z,6.17
2022-11-25T11:37:44.148Z,4.83
2022-11-25T11:40:23.123Z,5.57
2022-11-25T11:43:00.554Z,6.20
2022-11-25T11:46:00.147Z,6.07
2022-11-25T11:48:32.266Z,6.03
2022-11-25T11:51:29.966Z,9.70
2022-11-25T11:54:10.028Z,6.97
2022-11-25T11:57:02.072Z,5.40
2022-11-25T11:59:53.302Z,6.57
2022-11-25T12:02:45.661Z,6.83
2022-11-25T12:05:21.962Z,5.37
2022-11-25T12:08:10.361Z,6.33
2022-11-25T12:10:43.596Z,7.57
2022-11-25T12:13:23.716Z,6.93
2022-11-25T12:15:59.005Z,5.83
2022-11-25T12:18:42.383Z,5.90
2022-11-25T12:21:25.542Z,7.10
2022-11-25T12:24:03.976Z,5.00
2022-11-25T12:26:39.201Z,6.80
2022-11-25T12:29:12.327Z,6.80
2022-11-25T12:31:53.183Z,5.37
2022-11-25T12:34:48.628Z,6.57
2022-11-25T12:37:34.415Z,8.37
2022-11-25T12:40:16.387Z,6.60
2022-11-25T12:42:45.234Z,9.63
2022-11-25T12:45:17.851Z,7.67
2022-11-25T12:47:45.327Z,9.37
2022-11-25T12:50:27.299Z,5.30
2022-11-25T12:53:05.592Z,6.03
2022-11-25T12:55:38.291Z,6.97
2022-11-25T12:58:13.948Z,8.17
2022-11-25T13:01:08.083Z,9.27
2022-11-25T13:03:49.969Z,5.07
2022-11-25T13:06:38.581Z,6.63
2022-11-25T13:09:23.274Z,6.70
2022-11-25T13:12:09.204Z,5.27
2022-11-25T13:14:54.295Z,8.80
2022-11-25T13:17:23.389Z,5.93
2022-11-25T13:19:50.811Z,6.73
2022-11-25T13:22:20.440Z,6.73
2022-11-25T13:24:47.183Z,6.07
2022-11-25T13:27:33.406Z,6.17
2022-11-25T13:30:01.009Z,8.77
2022-11-25T13:32:40.089Z,8.03
2022-11-25T13:35:31.012Z,7.70
2022-11-25T13:37:57.710Z,7.50
2022-11-25T13:40:28.451Z,5.90
2022-11-25T13:42:56.802Z,9.67
2022-11-25T13:45:29.335Z,8.60
2022-11-25T13:48:04.034Z,6.00
2022-11-25T13:50:48.233Z,6.37
2022-11-25T13:53:22.931Z,6.07
2022-11-25T13:55:50.743Z,6.83
2022-11-25T13:58:24.696Z,7.87
2022-11-25T14:01:29.531Z,6.40
2022-11-25T14:04:00.274Z,9.07
2022-11-25T14:06:53.289Z,6.43
2022-11-25T14:09:47.011Z,11.00
2022-11-25T14:12:34.514Z,8.20
2022-11-25T14:15:04.560Z,11.47
2022-11-25T14:17:46.350Z,9.37
2022-11-25T14:20:46.078Z,6.13
2022-11-25T14:23:30.288Z,12.40
2022-11-25T14:26:01.610Z,7.93
2022-11-25T14:28:51.006Z,11.93
2022-11-25T14:31:22.978Z,8.03
2022-11-25T14:33:56.830Z,10.27
2022-11-25T14:36:49.384Z,12.00
2022-11-25T14:39:51.393Z,9.53
2022-11-25T14:42:22.219Z,13.70
2022-11-25T14:44:49.865Z,9.33
2022-11-25T14:47:22.899Z,10.50
2022-11-25T14:50:18.867Z,13.47
2022-11-25T14:52:44.090Z,11.50
2022-11-25T14:55:11.230Z,12.50
2022-11-25T14:57:41.566Z,14.47
2022-11-25T15:00:17.782Z,10.73
2022-11-25T15:02:57.016Z,9.97
2022-11-25T15:05:45.446Z,12.07
2022-11-25T15:08:17.738Z,10.20
2022-11-25T15:10:50.274Z,10.97
2022-11-25T15:13:54.111Z,9.03
2022-11-25T15:16:31.013Z,11.93
2022-11-25T15:19:00.028Z,10.67
2022-11-25T15:21:32.612Z,12.57
2022-11-25T15:23:59.663Z,12.17
2022-11-25T15:26:31.061Z,9.80
2022-11-25T15:29:00.607Z,9.17
2022-11-25T15:31:33.269Z,12.23
2022-11-25T15:34:10.782Z,11.30
2022-11-25T15:36:37.624Z,10.00
2022-11-25T15:39:19.572Z,10.23
2022-11-25T15:41:50.840Z,8.87
2022-11-25T15:44:22.535Z,9.90
2022-11-25T15:47:16.512Z,8.00
2022-11-25T15:49:52.969Z,7.53
2022-11-25T15:52:21.302Z,10.33
2022-11-25T15:54:53.467Z,7.93
2022-11-25T15:57:33.161Z,9.17
2022-11-25T15:59:59.816Z,7.47
2022-11-25T16:02:48.393Z,14.50
2022-11-25T16:05:15.026Z,11.53
2022-11-25T16:07:51.091Z,9.67
2022-11-25T16:10:33.141Z,10.40
2022-11-25T16:13:25.868Z,11.67
2022-11-25T16:15:58.496Z,8.93
2022-11-25T16:18:42.325Z,13.03
2022-11-25T16:21:13.366Z,13.23
2022-11-25T16:23:44.484Z,9.20
2022-11-25T16:26:11.027Z,6.67
2022-11-25T16:28:37.972Z,10.50
2022-11-25T16:31:04.716Z,8.23
2022-11-25T16:33:31.323Z,12.27
2022-11-25T16:35:57.914Z,8.97
2022-11-25T16:38:25.121Z,10.50
2022-11-25T16:40:54.104Z,10.50
2022-11-25T16:43:24.077Z,8.23
2022-11-25T16:45:52.874Z,10.90
2022-11-25T16:48:22.742Z,10.30
2022-11-25T16:50:50.774Z,9.97
2022-11-25T16:53:17.909Z,8.03
2022-11-25T16:55:46.306Z,10.77
2022-11-25T16:58:22.637Z,6.77
2022-11-25T17:00:52.019Z,9.80
2022-11-25T17:03:19.405Z,17.17
2022-11-25T17:05:46.947Z,11.93
2022-11-25T17:08:14.120Z,10.50
2022-11-25T17:10:43.252Z,10.83
2022-11-25T17:13:23.118Z,14.73
2022-11-25T17:15:49.958Z,9.13
2022-11-25T17:18:18.407Z,9.43
2022-11-25T17:20:48.145Z,13.00
2022-11-25T17:23:16.876Z,11.03
2022-11-25T17:25:48.424Z,11.03
2022-11-25T17:28:18.337Z,12.47
2022-11-25T17:30:46.564Z,11.20
2022-11-25T17:33:18.835Z,12.37
2022-11-25T17:35:46.071Z,14.47
2022-11-25T17:38:20.784Z,11.27
2022-11-25T17:40:47.884Z,11.07
2022-11-25T17:43:20.015Z,13.07
2022-11-25T17:45:47.347Z,12.50
2022-11-25T17:48:16.902Z,10.03
2022-11-25T17:50:43.949Z,13.33
2022-11-25T17:53:10.608Z,11.47
2022-11-25T17:55:38.584Z,14.20
2022-11-25T17:58:08.374Z,12.60
2022-11-25T18:00:35.274Z,9.77
2022-11-25T18:03:01.999Z,13.10
2022-11-25T18:05:28.893Z,16.87
2022-11-25T18:07:55.604Z,17.40
2022-11-25T18:10:26.331Z,13.33
2022-11-25T18:12:54.876Z,13.60
2022-11-25T18:15:24.891Z,15.13
2022-11-25T18:17:55.807Z,11.50
2022-11-25T18:20:24.808Z,13.33
2022-11-25T18:22:54.112Z,14.47
2022-11-25T18:25:25.203Z,11.60
2022-11-25T18:27:56.051Z,14.13
2022-11-25T18:30:29.156Z,15.60
2022-11-25T18:32:57.297Z,10.73
2022-11-25T18:35:36.535Z,13.93
2022-11-25T18:38:03.698Z,18.43
2022-11-25T18:40:30.735Z,12.20
2022-11-25T18:43:01.380Z,12.83
2022-11-25T18:45:33.044Z,14.87
2022-11-25T18:48:00.026Z,16.67
2022-11-25T18:50:27.899Z,16.47
2022-11-25T18:52:54.844Z,15.27
2022-11-25T18:55:23.257Z,13.73
2022-11-25T18:57:52.176Z,12.53
2022-11-25T19:00:32.282Z,16.87
2022-11-25T19:03:00.014Z,17.83
2022-11-25T19:05:33.038Z,21.90
2022-11-25T19:08:01.025Z,12.30
2022-11-25T19:10:31.304Z,16.30
2022-11-25T19:13:05.705Z,20.00
2022-11-25T19:15:33.616Z,14.83
2022-11-25T19:18:03.409Z,18.93
2022-11-25T19:20:30.255Z,13.50
2022-11-25T19:23:00.946Z,19.47
2022-11-25T19:25:28.290Z,17.43
2022-11-25T19:27:58.736Z,12.17
2022-11-25T19:30:29.730Z,15.90
2022-11-25T19:32:59.408Z,14.53
2022-11-25T19:35:38.761Z,13.20
2022-11-25T19:38:21.131Z,13.10
2022-11-25T19:40:50.394Z,14.83
2022-11-25T19:43:17.486Z,16.30
2022-11-25T19:45:45.749Z,15.83
2022-11-25T19:48:16.896Z,12.97
2022-11-25T19:50:45.960Z,15.83
2022-11-25T19:53:20.776Z,14.10
2022-11-25T19:55:48.749Z,15.00
2022-11-25T19:58:15.716Z,17.27
2022-11-25T20:00:44.327Z,19.13
2022-11-25T20:03:23.515Z,21.53
2022-11-25T20:05:52.828Z,41.50
2022-11-25T20:08:25.842Z,44.17
2022-11-25T20:10:53.634Z,17.37
2022-11-25T20:13:20.855Z,22.03
2022-11-25T20:15:47.553Z,26.37
2022-11-25T20:18:18.446Z,16.30
2022-11-25T20:20:47.049Z,15.33
2022-11-25T20:23:27.401Z,20.97
2022-11-25T20:25:54.176Z,11.77
2022-11-25T20:28:24.085Z,15.57
2022-11-25T20:30:51.509Z,19.63
2022-11-25T20:33:22.728Z,18.47
2022-11-25T20:36:11.726Z,18.97
2022-11-25T20:38:43.914Z,14.97
2022-11-25T20:41:11.581Z,17.77
2022-11-25T20:43:41.465Z,18.23
2022-11-25T20:46:22.896Z,16.40
2022-11-25T20:48:57.399Z,15.80
2022-11-25T20:51:25.228Z,17.90
2022-11-25T20:53:58.012Z,19.77
2022-11-25T20:56:26.401Z,22.37
2022-11-25T20:58:53.414Z,18.67
2022-11-25T21:01:20.429Z,22.70
2022-11-25T21:03:49.157Z,14.87
2022-11-25T21:06:30.400Z,18.70
2022-11-25T21:08:59.147Z,14.97
2022-11-25T21:11:27.658Z,16.57
2022-11-25T21:13:54.558Z,17.00
2022-11-25T21:16:21.362Z,16.23
2022-11-25T21:18:48.202Z,16.83
2022-11-25T21:21:19.386Z,13.43
2022-11-25T21:23:47.834Z,14.10
2022-11-25T21:26:24.786Z,16.17
2022-11-25T21:28:53.064Z,14.07
2022-11-25T21:31:22.852Z,18.73
2022-11-25T21:33:50.889Z,16.33
2022-11-25T21:36:21.741Z,16.47
2022-11-25T21:38:51.263Z,16.57
2022-11-25T21:41:18.733Z,18.20
2022-11-25T21:43:49.315Z,14.83
2022-11-25T21:46:22.399Z,18.77
2022-11-25T21:48:49.769Z,15.60
2022-11-25T21:51:24.180Z,17.27
2022-11-25T21:53:52.012Z,18.67
2022-11-25T21:56:33.892Z,17.07
2022-11-25T21:59:02.759Z,14.33
2022-11-25T22:01:29.862Z,12.97
2022-11-25T22:03:56.485Z,19.80
2022-11-25T22:06:30.803Z,17.80
2022-11-25T22:08:57.892Z,14.50
2022-11-25T22:11:30.972Z,15.40
2022-11-25T22:13:58.710Z,22.07
2022-11-25T22:16:30.152Z,18.90
2022-11-25T22:18:57.593Z,25.50
2022-11-25T22:21:24.598Z,20.07
2022-11-25T22:23:51.209Z,17.43
2022-11-25T22:26:26.812Z,14.87
2022-11-25T22:28:53.959Z,19.47
2022-11-25T22:31:20.936Z,18.43
2022-11-25T22:33:48.007Z,23.13
2022-11-25T22:36:33.900Z,18.80
2022-11-25T22:39:27.121Z,18.37
2022-11-25T22:42:04.402Z,19.40
2022-11-25T22:44:35.923Z,19.53
2022-11-25T22:47:03.275Z,15.00
2022-11-25T22:49:44.083Z,19.73
2022-11-25T22:52:22.319Z,17.47
2022-11-25T22:54:49.841Z,26.47
2022-11-25T22:57:17.641Z,19.13
2022-11-25T22:59:44.321Z,22.67
2022-11-25T23:02:23.821Z,15.70
2022-11-25T23:04:55.771Z,22.77
2022-11-25T23:07:23.847Z,19.00
2022-11-25T23:09:50.776Z,19.90
2022-11-25T23:12:18.536Z,20.37
2022-11-25T23:14:45.528Z,24.67
2022-11-25T23:17:24.381Z,19.00
2022-11-25T23:19:52.056Z,20.87
2022-11-25T23:22:19.393Z,19.43
2022-11-25T23:24:48.177Z,21.03
2022-11-25T23:27:15.948Z,17.63
2022-11-25T23:29:42.598Z,16.23
2022-11-25T23:32:18.528Z,16.27
2022-11-25T23:34:45.447Z,18.30
2022-11-25T23:37:13.609Z,23.20
2022-11-25T23:39:40.569Z,17.47
2022-11-25T23:42:17.615Z,17.30
2022-11-25T23:44:44.502Z,18.50
2022-11-25T23:47:17.778Z,14.90
2022-11-25T23:49:47.085Z,17.17
2022-11-25T23:52:18.349Z,16.40
2022-11-25T23:54:47.752Z,16.73
2022-11-25T23:57:15.246Z,13.07
2022-11-25T23:59:42.373Z,17.87
